sensor_id;sensor_type;location;lat;lon;timestamp;P1;durP1;ratioP1;P2;durP2;ratioP2
583;SDS011;27024;54.068;12.116;2023-12-04T00:01:44;23.15;;;9.52;;
583;SDS011;27024;54.068;12.116;2023-12-04T00:04:12;24.52;;;8.60;;
583;SDS011;27024;54.068;12.116;2023-12-04T00:06:40;22.33;;;8.45;;
583;SDS011;27024;54.068;12.116;2023-12-04T00:09:08;23.55;;;10.07;;
583;SDS011;27024;54.068;12.116;2023-12-04T00:11:35;22.27;;;9.32;;
583;SDS011;27024;54.068;12.116;2023-12-04T00:14:02;22.30;;;9.45;;
583;SDS011;27024;54.068;12.116;2023-12-04T00:16:29;22.67;;;8.77;;
583;SDS011;27024;54.068;12.116;2023-12-04T00:18:56;19.77;;;8.52;;
583;SDS011;27024;54.068;12.116;2023-12-04T00:21:23;20.75;;;9.18;;
583;SDS011;27024;54.068;12.116;2023-12-04T00:23:50;23.85;;;8.35;;
583;SDS011;27024;54.068;12.116;2023-12-04T00:26:17;21.88;;;9.02;;
583;SDS011;27024;54.068;12.116;2023-12-04T00:28:44;22.10;;;9.00;;
583;SDS011;27024;54.068;12.116;2023-12-04T00:31:11;21.63;;;8.30;;
583;SDS011;27024;54.068;12.116;2023-12-04T00:33:38;22.70;;;8.75;;
583;SDS011;27024;54.068;12.116;2023-12-04T00:36:05;21.38;;;8.80;;
583;SDS011;27024;54.068;12.116;2023-12-04T00:38:32;20.38;;;8.07;;
583;SDS011;27024;54.068;12.116;2023-12-04T00:40:59;20.80;;;8.27;;
583;SDS011;27024;54.068;12.116;2023-12-04T00:43:25;20.23;;;8.07;;
583;SDS011;27024;54.068;12.116;2023-12-04T00:45:53;16.65;;;6.90;;
583;SDS011;27024;54.068;12.116;2023-12-04T00:48:20;19.60;;;8.23;;
583;SDS011;27024;54.068;12.116;2023-12-04T00:50:47;20.00;;;8.18;;
583;SDS011;27024;54.068;12.116;2023-12-04T00:53:13;23.15;;;8.45;;
583;SDS011;27024;54.068;12.116;2023-12-04T00:55:40;16.70;;;7.55;;
583;SDS011;27024;54.068;12.116;2023-12-04T00:58:07;23.33;;;8.75;;
583;SDS011;27024;54.068;12.116;2023-12-04T01:00:34;15.85;;;6.85;;
583;SDS011;27024;54.068;12.116;2023-12-04T01:03:01;18.08;;;7.95;;
583;SDS011;27024;54.068;12.116;2023-12-04T01:05:28;18.67;;;8.27;;
583;SDS011;27024;54.068;12.116;2023-12-04T01:07:55;18.77;;;7.78;;
583;SDS011;27024;54.068;12.116;2023-12-04T01:10:22;18.38;;;8.18;;
583;SDS011;27024;54.068;12.116;2023-12-04T01:12:49;19.65;;;6.82;;
583;SDS011;27024;54.068;12.116;2023-12-04T01:15:16;19.55;;;8.07;;
583;SDS011;27024;54.068;12.116;2023-12-04T01:17:43;14.90;;;6.30;;
583;SDS011;27024;54.068;12.116;2023-12-04T01:20:10;20.98;;;8.60;;
583;SDS011;27024;54.068;12.116;2023-12-04T01:22:37;16.95;;;7.93;;
583;SDS011;27024;54.068;12.116;2023-12-04T01:25:04;19.70;;;7.80;;
583;SDS011;27024;54.068;12.116;2023-12-04T01:27:31;21.05;;;8.30;;
583;SDS011;27024;54.068;12.116;2023-12-04T01:29:58;18.92;;;8.27;;
583;SDS011;27024;54.068;12.116;2023-12-04T01:32:25;19.73;;;8.40;;
583;SDS011;27024;54.068;12.116;2023-12-04T01:34:52;21.67;;;8.70;;
583;SDS011;27024;54.068;12.116;2023-12-04T01:37:19;20.05;;;7.68;;
583;SDS011;27024;54.068;12.116;2023-12-04T01:39:46;16.35;;;6.50;;
583;SDS011;27024;54.068;12.116;2023-12-04T01:42:13;20.17;;;8.20;;
583;SDS011;27024;54.068;12.116;2023-12-04T01:44:40;15.82;;;6.38;;
583;SDS011;27024;54.068;12.116;2023-12-04T01:47:07;18.65;;;8.52;;
583;SDS011;27024;54.068;12.116;2023-12-04T01:49:34;20.33;;;8.02;;
583;SDS011;27024;54.068;12.116;2023-12-04T01:52:01;20.80;;;8.63;;
583;SDS011;27024;54.068;12.116;2023-12-04T01:54:29;20.83;;;9.15;;
583;SDS011;27024;54.068;12.116;2023-12-04T01:56:57;20.25;;;8.35;;
583;SDS011;27024;54.068;12.116;2023-12-04T01:59:25;18.63;;;8.10;;
583;SDS011;27024;54.068;12.116;2023-12-04T02:01:52;19.50;;;8.63;;
583;SDS011;27024;54.068;12.116;2023-12-04T02:04:20;21.55;;;8.68;;
583;SDS011;27024;54.068;12.116;2023-12-04T02:06:47;20.27;;;8.38;;
583;SDS011;27024;54.068;12.116;2023-12-04T02:09:14;19.17;;;9.05;;
583;SDS011;27024;54.068;12.116;2023-12-04T02:11:43;14.45;;;7.55;;
583;SDS011;27024;54.068;12.116;2023-12-04T02:14:09;20.40;;;8.32;;
583;SDS011;27024;54.068;12.116;2023-12-04T02:16:38;19.40;;;7.68;;
583;SDS011;27024;54.068;12.116;2023-12-04T02:19:07;16.35;;;7.47;;
583;SDS011;27024;54.068;12.116;2023-12-04T02:21:35;22.27;;;8.57;;
583;SDS011;27024;54.068;12.116;2023-12-04T02:24:02;16.77;;;7.93;;
583;SDS011;27024;54.068;12.116;2023-12-04T02:26:31;19.67;;;8.32;;
583;SDS011;27024;54.068;12.116;2023-12-04T02:31:33;16.42;;;7.13;;
583;SDS011;27024;54.068;12.116;2023-12-04T02:34:01;22.45;;;8.70;;
583;SDS011;27024;54.068;12.116;2023-12-04T02:36:32;18.73;;;8.40;;
583;SDS011;27024;54.068;12.116;2023-12-04T02:39:02;19.10;;;9.00;;
583;SDS011;27024;54.068;12.116;2023-12-04T02:41:29;19.02;;;8.40;;
583;SDS011;27024;54.068;12.116;2023-12-04T02:43:56;18.92;;;8.38;;
583;SDS011;27024;54.068;12.116;2023-12-04T02:46:22;17.92;;;7.88;;
583;SDS011;27024;54.068;12.116;2023-12-04T02:48:49;20.52;;;8.35;;
583;SDS011;27024;54.068;12.116;2023-12-04T02:51:16;20.75;;;8.93;;
583;SDS011;27024;54.068;12.116;2023-12-04T02:53:43;20.55;;;8.45;;
583;SDS011;27024;54.068;12.116;2023-12-04T02:56:10;20.70;;;8.68;;
583;SDS011;27024;54.068;12.116;2023-12-04T02:58:37;18.92;;;8.23;;
583;SDS011;27024;54.068;12.116;2023-12-04T03:01:04;19.08;;;8.23;;
583;SDS011;27024;54.068;12.116;2023-12-04T03:03:31;22.00;;;9.65;;
583;SDS011;27024;54.068;12.116;2023-12-04T03:05:58;20.83;;;8.52;;
583;SDS011;27024;54.068;12.116;2023-12-04T03:08:25;21.35;;;9.85;;
583;SDS011;27024;54.068;12.116;2023-12-04T03:10:52;21.73;;;9.07;;
583;SDS011;27024;54.068;12.116;2023-12-04T03:13:19;21.25;;;8.88;;
583;SDS011;27024;54.068;12.116;2023-12-04T03:15:46;20.70;;;8.73;;
583;SDS011;27024;54.068;12.116;2023-12-04T03:18:13;21.55;;;9.18;;
583;SDS011;27024;54.068;12.116;2023-12-04T03:20:40;22.95;;;9.15;;
583;SDS011;27024;54.068;12.116;2023-12-04T03:23:07;24.65;;;9.23;;
583;SDS011;27024;54.068;12.116;2023-12-04T03:25:33;21.77;;;9.35;;
583;SDS011;27024;54.068;12.116;2023-12-04T03:28:00;20.20;;;8.60;;
583;SDS011;27024;54.068;12.116;2023-12-04T03:30:27;23.75;;;9.30;;
583;SDS011;27024;54.068;12.116;2023-12-04T03:32:54;25.60;;;9.85;;
583;SDS011;27024;54.068;12.116;2023-12-04T03:35:21;21.83;;;9.38;;
583;SDS011;27024;54.068;12.116;2023-12-04T03:37:48;20.10;;;8.43;;
583;SDS011;27024;54.068;12.116;2023-12-04T03:40:16;23.63;;;10.32;;
583;SDS011;27024;54.068;12.116;2023-12-04T03:42:43;25.70;;;9.85;;
583;SDS011;27024;54.068;12.116;2023-12-04T03:45:10;25.20;;;9.95;;
583;SDS011;27024;54.068;12.116;2023-12-04T03:47:36;22.52;;;9.23;;
583;SDS011;27024;54.068;12.116;2023-12-04T03:50:03;22.65;;;9.65;;
583;SDS011;27024;54.068;12.116;2023-12-04T03:52:31;23.77;;;9.90;;
583;SDS011;27024;54.068;12.116;2023-12-04T03:54:58;29.42;;;10.35;;
583;SDS011;27024;54.068;12.116;2023-12-04T03:57:25;24.85;;;9.80;;
583;SDS011;27024;54.068;12.116;2023-12-04T03:59:51;27.60;;;10.25;;
583;SDS011;27024;54.068;12.116;2023-12-04T04:02:18;27.02;;;10.40;;
583;SDS011;27024;54.068;12.116;2023-12-04T04:04:45;26.40;;;9.85;;
583;SDS011;27024;54.068;12.116;2023-12-04T04:07:12;30.08;;;10.77;;
583;SDS011;27024;54.068;12.116;2023-12-04T04:09:39;27.25;;;11.38;;
583;SDS011;27024;54.068;12.116;2023-12-04T04:12:06;30.63;;;11.52;;
583;SDS011;27024;54.068;12.116;2023-12-04T04:14:32;33.22;;;11.68;;
583;SDS011;27024;54.068;12.116;2023-12-04T04:16:59;29.08;;;10.95;;
583;SDS011;27024;54.068;12.116;2023-12-04T04:19:26;31.17;;;11.10;;
583;SDS011;27024;54.068;12.116;2023-12-04T04:21:53;27.48;;;10.73;;
583;SDS011;27024;54.068;12.116;2023-12-04T04:24:20;28.20;;;10.77;;
583;SDS011;27024;54.068;12.116;2023-12-04T04:26:47;30.25;;;10.35;;
583;SDS011;27024;54.068;12.116;2023-12-04T04:29:13;29.75;;;11.45;;
583;SDS011;27024;54.068;12.116;2023-12-04T04:31:40;26.63;;;10.48;;
583;SDS011;27024;54.068;12.116;2023-12-04T04:34:07;26.63;;;11.55;;
583;SDS011;27024;54.068;12.116;2023-12-04T04:36:34;28.10;;;10.27;;
583;SDS011;27024;54.068;12.116;2023-12-04T04:39:02;30.30;;;10.88;;
583;SDS011;27024;54.068;12.116;2023-12-04T04:41:29;31.55;;;11.32;;
583;SDS011;27024;54.068;12.116;2023-12-04T04:43:56;29.08;;;10.98;;
583;SDS011;27024;54.068;12.116;2023-12-04T04:46:23;29.63;;;11.75;;
583;SDS011;27024;54.068;12.116;2023-12-04T04:48:51;32.70;;;11.27;;
583;SDS011;27024;54.068;12.116;2023-12-04T04:51:18;28.13;;;10.57;;
583;SDS011;27024;54.068;12.116;2023-12-04T04:53:45;29.23;;;10.57;;
583;SDS011;27024;54.068;12.116;2023-12-04T04:56:12;31.58;;;10.65;;
583;SDS011;27024;54.068;12.116;2023-12-04T04:58:39;31.00;;;11.57;;
583;SDS011;27024;54.068;12.116;2023-12-04T05:01:06;26.73;;;10.32;;
583;SDS011;27024;54.068;12.116;2023-12-04T05:03:34;30.05;;;11.18;;
583;SDS011;27024;54.068;12.116;2023-12-04T05:06:01;34.20;;;11.40;;
583;SDS011;27024;54.068;12.116;2023-12-04T05:08:28;31.02;;;10.00;;
583;SDS011;27024;54.068;12.116;2023-12-04T05:10:55;29.50;;;10.52;;
583;SDS011;27024;54.068;12.116;2023-12-04T05:13:22;30.85;;;9.85;;
583;SDS011;27024;54.068;12.116;2023-12-04T05:15:49;30.08;;;10.73;;
583;SDS011;27024;54.068;12.116;2023-12-04T05:18:16;28.20;;;10.07;;
583;SDS011;27024;54.068;12.116;2023-12-04T05:20:43;29.05;;;10.15;;
583;SDS011;27024;54.068;12.116;2023-12-04T05:23:10;26.30;;;11.13;;
583;SDS011;27024;54.068;12.116;2023-12-04T05:25:36;30.75;;;10.85;;
583;SDS011;27024;54.068;12.116;2023-12-04T05:28:13;27.02;;;9.88;;
583;SDS011;27024;54.068;12.116;2023-12-04T05:30:40;31.38;;;10.90;;
583;SDS011;27024;54.068;12.116;2023-12-04T05:33:07;29.13;;;10.80;;
583;SDS011;27024;54.068;12.116;2023-12-04T05:35:34;32.17;;;11.38;;
583;SDS011;27024;54.068;12.116;2023-12-04T05:38:02;37.65;;;11.73;;
583;SDS011;27024;54.068;12.116;2023-12-04T05:40:29;29.65;;;10.80;;
583;SDS011;27024;54.068;12.116;2023-12-04T05:42:56;29.42;;;10.82;;
583;SDS011;27024;54.068;12.116;2023-12-04T05:45:23;33.30;;;11.60;;
583;SDS011;27024;54.068;12.116;2023-12-04T05:47:50;30.60;;;10.73;;
583;SDS011;27024;54.068;12.116;2023-12-04T05:50:17;31.67;;;10.98;;
583;SDS011;27024;54.068;12.116;2023-12-04T05:52:44;30.52;;;10.45;;
583;SDS011;27024;54.068;12.116;2023-12-04T05:55:11;29.40;;;10.88;;
583;SDS011;27024;54.068;12.116;2023-12-04T05:57:38;33.88;;;10.82;;
583;SDS011;27024;54.068;12.116;2023-12-04T06:00:06;33.60;;;11.20;;
583;SDS011;27024;54.068;12.116;2023-12-04T06:02:43;31.60;;;11.50;;
583;SDS011;27024;54.068;12.116;2023-12-04T06:05:10;36.55;;;12.73;;
583;SDS011;27024;54.068;12.116;2023-12-04T06:07:37;31.98;;;11.25;;
583;SDS011;27024;54.068;12.116;2023-12-04T06:10:06;28.52;;;10.13;;
583;SDS011;27024;54.068;12.116;2023-12-04T06:12:33;33.42;;;10.57;;
583;SDS011;27024;54.068;12.116;2023-12-04T06:15:00;35.08;;;11.02;;
583;SDS011;27024;54.068;12.116;2023-12-04T06:17:28;34.05;;;11.15;;
583;SDS011;27024;54.068;12.116;2023-12-04T06:19:55;34.40;;;11.63;;
583;SDS011;27024;54.068;12.116;2023-12-04T06:22:22;38.08;;;11.95;;
583;SDS011;27024;54.068;12.116;2023-12-04T06:24:50;33.13;;;11.13;;
583;SDS011;27024;54.068;12.116;2023-12-04T06:27:18;31.20;;;11.88;;
583;SDS011;27024;54.068;12.116;2023-12-04T06:29:48;34.60;;;10.90;;
583;SDS011;27024;54.068;12.116;2023-12-04T06:32:18;35.47;;;12.52;;
583;SDS011;27024;54.068;12.116;2023-12-04T06:34:46;39.05;;;11.98;;
583;SDS011;27024;54.068;12.116;2023-12-04T06:37:15;32.53;;;10.68;;
583;SDS011;27024;54.068;12.116;2023-12-04T06:39:42;36.47;;;12.35;;
583;SDS011;27024;54.068;12.116;2023-12-04T06:42:12;38.10;;;12.73;;
583;SDS011;27024;54.068;12.116;2023-12-04T06:44:39;30.58;;;11.13;;
583;SDS011;27024;54.068;12.116;2023-12-04T06:47:07;32.03;;;12.15;;
583;SDS011;27024;54.068;12.116;2023-12-04T06:49:35;35.90;;;11.85;;
583;SDS011;27024;54.068;12.116;2023-12-04T06:52:02;33.85;;;11.48;;
583;SDS011;27024;54.068;12.116;2023-12-04T06:54:29;34.05;;;11.73;;
583;SDS011;27024;54.068;12.116;2023-12-04T06:56:57;33.13;;;11.85;;
583;SDS011;27024;54.068;12.116;2023-12-04T06:59:23;30.40;;;10.68;;
583;SDS011;27024;54.068;12.116;2023-12-04T07:01:50;31.63;;;11.05;;
583;SDS011;27024;54.068;12.116;2023-12-04T07:04:18;35.30;;;12.15;;
583;SDS011;27024;54.068;12.116;2023-12-04T07:06:48;32.28;;;10.90;;
583;SDS011;27024;54.068;12.116;2023-12-04T07:09:15;36.08;;;11.27;;
583;SDS011;27024;54.068;12.116;2023-12-04T07:11:46;31.55;;;11.82;;
583;SDS011;27024;54.068;12.116;2023-12-04T07:14:13;35.15;;;12.40;;
583;SDS011;27024;54.068;12.116;2023-12-04T07:16:43;33.38;;;10.70;;
583;SDS011;27024;54.068;12.116;2023-12-04T07:19:10;30.02;;;11.23;;
583;SDS011;27024;54.068;12.116;2023-12-04T07:21:38;29.67;;;11.02;;
583;SDS011;27024;54.068;12.116;2023-12-04T07:24:05;35.28;;;11.98;;
583;SDS011;27024;54.068;12.116;2023-12-04T07:26:33;36.17;;;11.02;;
583;SDS011;27024;54.068;12.116;2023-12-04T07:29:01;35.88;;;12.13;;
583;SDS011;27024;54.068;12.116;2023-12-04T07:31:28;34.67;;;11.95;;
583;SDS011;27024;54.068;12.116;2023-12-04T07:33:55;34.78;;;12.13;;
583;SDS011;27024;54.068;12.116;2023-12-04T07:36:23;34.83;;;11.93;;
583;SDS011;27024;54.068;12.116;2023-12-04T07:38:51;37.30;;;11.75;;
583;SDS011;27024;54.068;12.116;2023-12-04T07:41:20;35.97;;;13.43;;
583;SDS011;27024;54.068;12.116;2023-12-04T07:43:48;34.38;;;11.13;;
583;SDS011;27024;54.068;12.116;2023-12-04T07:46:15;37.13;;;12.27;;
583;SDS011;27024;54.068;12.116;2023-12-04T07:48:42;31.75;;;11.13;;
583;SDS011;27024;54.068;12.116;2023-12-04T07:51:10;35.35;;;11.52;;
583;SDS011;27024;54.068;12.116;2023-12-04T07:53:37;34.95;;;11.27;;
583;SDS011;27024;54.068;12.116;2023-12-04T07:56:04;36.17;;;13.10;;
583;SDS011;27024;54.068;12.116;2023-12-04T07:58:31;35.70;;;11.70;;
583;SDS011;27024;54.068;12.116;2023-12-04T08:00:58;39.85;;;12.23;;
583;SDS011;27024;54.068;12.116;2023-12-04T08:03:26;36.10;;;12.15;;
583;SDS011;27024;54.068;12.116;2023-12-04T08:05:53;35.15;;;11.73;;
583;SDS011;27024;54.068;12.116;2023-12-04T08:08:20;35.97;;;10.70;;
583;SDS011;27024;54.068;12.116;2023-12-04T08:10:47;32.47;;;12.00;;
583;SDS011;27024;54.068;12.116;2023-12-04T08:13:15;34.88;;;11.32;;
583;SDS011;27024;54.068;12.116;2023-12-04T08:15:43;34.45;;;11.60;;
583;SDS011;27024;54.068;12.116;2023-12-04T08:18:11;36.75;;;12.23;;
583;SDS011;27024;54.068;12.116;2023-12-04T08:20:38;32.97;;;12.00;;
583;SDS011;27024;54.068;12.116;2023-12-04T08:23:07;31.00;;;10.90;;
583;SDS011;27024;54.068;12.116;2023-12-04T08:25:34;31.77;;;10.75;;
583;SDS011;27024;54.068;12.116;2023-12-04T08:28:06;34.03;;;11.75;;
583;SDS011;27024;54.068;12.116;2023-12-04T08:30:35;33.28;;;11.75;;
583;SDS011;27024;54.068;12.116;2023-12-04T08:33:02;35.33;;;12.52;;
583;SDS011;27024;54.068;12.116;2023-12-04T08:35:29;33.83;;;11.32;;
583;SDS011;27024;54.068;12.116;2023-12-04T08:37:56;32.58;;;11.55;;
583;SDS011;27024;54.068;12.116;2023-12-04T08:40:23;30.58;;;11.15;;
583;SDS011;27024;54.068;12.116;2023-12-04T08:42:50;33.00;;;11.85;;
583;SDS011;27024;54.068;12.116;2023-12-04T08:45:17;34.72;;;10.45;;
583;SDS011;27024;54.068;12.116;2023-12-04T08:47:45;30.50;;;11.80;;
583;SDS011;27024;54.068;12.116;2023-12-04T08:50:12;33.60;;;11.68;;
583;SDS011;27024;54.068;12.116;2023-12-04T08:52:39;29.48;;;10.68;;
583;SDS011;27024;54.068;12.116;2023-12-04T08:55:09;29.58;;;10.23;;
583;SDS011;27024;54.068;12.116;2023-12-04T08:57:36;25.02;;;9.60;;
583;SDS011;27024;54.068;12.116;2023-12-04T09:00:03;33.17;;;11.43;;
583;SDS011;27024;54.068;12.116;2023-12-04T09:02:31;30.63;;;10.30;;
583;SDS011;27024;54.068;12.116;2023-12-04T09:05:02;28.08;;;10.32;;
583;SDS011;27024;54.068;12.116;2023-12-04T09:07:30;31.30;;;10.93;;
583;SDS011;27024;54.068;12.116;2023-12-04T09:10:00;28.33;;;10.15;;
583;SDS011;27024;54.068;12.116;2023-12-04T09:12:36;28.98;;;9.85;;
583;SDS011;27024;54.068;12.116;2023-12-04T09:15:04;30.25;;;10.48;;
583;SDS011;27024;54.068;12.116;2023-12-04T09:17:33;28.48;;;9.60;;
583;SDS011;27024;54.068;12.116;2023-12-04T09:20:05;27.83;;;10.85;;
583;SDS011;27024;54.068;12.116;2023-12-04T09:22:32;27.85;;;10.68;;
583;SDS011;27024;54.068;12.116;2023-12-04T09:25:16;27.55;;;10.55;;
583;SDS011;27024;54.068;12.116;2023-12-04T09:27:42;29.23;;;10.13;;
583;SDS011;27024;54.068;12.116;2023-12-04T09:30:09;26.98;;;10.13;;
583;SDS011;27024;54.068;12.116;2023-12-04T09:32:37;26.52;;;9.57;;
583;SDS011;27024;54.068;12.116;2023-12-04T09:35:04;26.38;;;9.73;;
583;SDS011;27024;54.068;12.116;2023-12-04T09:37:31;24.85;;;9.77;;
583;SDS011;27024;54.068;12.116;2023-12-04T09:39:58;28.55;;;10.15;;
583;SDS011;27024;54.068;12.116;2023-12-04T09:42:25;26.73;;;9.48;;
583;SDS011;27024;54.068;12.116;2023-12-04T09:44:54;26.17;;;9.95;;
583;SDS011;27024;54.068;12.116;2023-12-04T09:47:20;30.10;;;10.52;;
583;SDS011;27024;54.068;12.116;2023-12-04T09:49:49;26.45;;;8.32;;
583;SDS011;27024;54.068;12.116;2023-12-04T09:52:19;27.90;;;10.15;;
583;SDS011;27024;54.068;12.116;2023-12-04T09:54:47;25.10;;;9.50;;
583;SDS011;27024;54.068;12.116;2023-12-04T09:57:13;25.45;;;8.52;;
583;SDS011;27024;54.068;12.116;2023-12-04T09:59:41;25.05;;;8.95;;
583;SDS011;27024;54.068;12.116;2023-12-04T10:02:11;26.70;;;9.95;;
583;SDS011;27024;54.068;12.116;2023-12-04T10:04:38;21.73;;;8.00;;
583;SDS011;27024;54.068;12.116;2023-12-04T10:07:06;28.30;;;9.38;;
583;SDS011;27024;54.068;12.116;2023-12-04T10:09:33;25.45;;;9.23;;
583;SDS011;27024;54.068;12.116;2023-12-04T10:12:00;24.20;;;8.82;;
583;SDS011;27024;54.068;12.116;2023-12-04T10:14:28;22.58;;;8.82;;
583;SDS011;27024;54.068;12.116;2023-12-04T10:16:54;24.25;;;8.70;;
583;SDS011;27024;54.068;12.116;2023-12-04T10:19:22;26.60;;;9.68;;
583;SDS011;27024;54.068;12.116;2023-12-04T10:21:56;26.40;;;10.18;;
583;SDS011;27024;54.068;12.116;2023-12-04T10:26:55;26.08;;;9.70;;
583;SDS011;27024;54.068;12.116;2023-12-04T10:29:22;21.35;;;8.07;;
583;SDS011;27024;54.068;12.116;2023-12-04T10:31:50;22.77;;;9.10;;
583;SDS011;27024;54.068;12.116;2023-12-04T10:34:19;22.52;;;9.23;;
583;SDS011;27024;54.068;12.116;2023-12-04T10:36:47;25.27;;;9.60;;
583;SDS011;27024;54.068;12.116;2023-12-04T10:39:13;24.50;;;9.30;;
583;SDS011;27024;54.068;12.116;2023-12-04T10:41:40;23.13;;;7.97;;
583;SDS011;27024;54.068;12.116;2023-12-04T10:44:08;24.17;;;8.88;;
583;SDS011;27024;54.068;12.116;2023-12-04T10:46:36;25.45;;;9.80;;
583;SDS011;27024;54.068;12.116;2023-12-04T10:49:05;24.30;;;8.68;;
583;SDS011;27024;54.068;12.116;2023-12-04T10:51:32;22.83;;;9.38;;
583;SDS011;27024;54.068;12.116;2023-12-04T10:54:01;22.92;;;8.55;;
583;SDS011;27024;54.068;12.116;2023-12-04T10:56:38;21.45;;;8.93;;
583;SDS011;27024;54.068;12.116;2023-12-04T10:59:08;24.30;;;9.40;;
583;SDS011;27024;54.068;12.116;2023-12-04T11:01:42;21.55;;;7.78;;
583;SDS011;27024;54.068;12.116;2023-12-04T11:04:13;24.20;;;9.70;;
583;SDS011;27024;54.068;12.116;2023-12-04T11:06:46;22.88;;;9.05;;
583;SDS011;27024;54.068;12.116;2023-12-04T11:09:16;24.08;;;8.65;;
583;SDS011;27024;54.068;12.116;2023-12-04T11:11:46;23.92;;;8.70;;
583;SDS011;27024;54.068;12.116;2023-12-04T11:14:18;23.08;;;9.15;;
583;SDS011;27024;54.068;12.116;2023-12-04T11:16:51;22.65;;;8.88;;
583;SDS011;27024;54.068;12.116;2023-12-04T11:19:26;26.30;;;8.88;;
583;SDS011;27024;54.068;12.116;2023-12-04T11:22:16;22.63;;;9.45;;
583;SDS011;27024;54.068;12.116;2023-12-04T11:24:47;21.25;;;8.65;;
583;SDS011;27024;54.068;12.116;2023-12-04T11:27:17;22.45;;;7.60;;
583;SDS011;27024;54.068;12.116;2023-12-04T11:29:45;21.20;;;8.43;;
583;SDS011;27024;54.068;12.116;2023-12-04T11:32:14;21.48;;;8.13;;
583;SDS011;27024;54.068;12.116;2023-12-04T11:35:07;20.70;;;8.68;;
583;SDS011;27024;54.068;12.116;2023-12-04T11:37:38;19.45;;;8.27;;
583;SDS011;27024;54.068;12.116;2023-12-04T11:40:05;21.45;;;8.32;;
583;SDS011;27024;54.068;12.116;2023-12-04T11:42:34;21.10;;;8.10;;
583;SDS011;27024;54.068;12.116;2023-12-04T11:45:02;22.05;;;9.02;;
583;SDS011;27024;54.068;12.116;2023-12-04T11:47:29;21.55;;;8.15;;
583;SDS011;27024;54.068;12.116;2023-12-04T11:49:57;22.58;;;8.57;;
583;SDS011;27024;54.068;12.116;2023-12-04T11:52:33;24.95;;;9.48;;
583;SDS011;27024;54.068;12.116;2023-12-04T11:55:04;18.95;;;7.70;;
583;SDS011;27024;54.068;12.116;2023-12-04T11:57:42;21.83;;;8.05;;
583;SDS011;27024;54.068;12.116;2023-12-04T12:00:10;21.17;;;8.95;;
583;SDS011;27024;54.068;12.116;2023-12-04T12:02:48;24.02;;;8.40;;
583;SDS011;27024;54.068;12.116;2023-12-04T12:05:41;19.23;;;7.53;;
583;SDS011;27024;54.068;12.116;2023-12-04T12:08:09;22.27;;;8.75;;
583;SDS011;27024;54.068;12.116;2023-12-04T12:10:36;20.23;;;7.93;;
583;SDS011;27024;54.068;12.116;2023-12-04T12:13:03;19.55;;;8.10;;
583;SDS011;27024;54.068;12.116;2023-12-04T12:15:32;21.02;;;8.30;;
583;SDS011;27024;54.068;12.116;2023-12-04T12:18:00;21.27;;;8.35;;
583;SDS011;27024;54.068;12.116;2023-12-04T12:20:27;19.40;;;7.43;;
583;SDS011;27024;54.068;12.116;2023-12-04T12:22:54;20.08;;;7.47;;
583;SDS011;27024;54.068;12.116;2023-12-04T12:25:22;19.60;;;8.00;;
583;SDS011;27024;54.068;12.116;2023-12-04T12:27:50;21.00;;;8.60;;
583;SDS011;27024;54.068;12.116;2023-12-04T12:30:18;24.15;;;8.48;;
583;SDS011;27024;54.068;12.116;2023-12-04T12:32:49;19.88;;;7.82;;
583;SDS011;27024;54.068;12.116;2023-12-04T12:35:19;20.08;;;7.20;;
583;SDS011;27024;54.068;12.116;2023-12-04T12:37:46;19.23;;;7.80;;
583;SDS011;27024;54.068;12.116;2023-12-04T12:40:13;20.20;;;7.95;;
583;SDS011;27024;54.068;12.116;2023-12-04T12:42:40;19.20;;;7.93;;
583;SDS011;27024;54.068;12.116;2023-12-04T12:45:08;22.75;;;8.80;;
583;SDS011;27024;54.068;12.116;2023-12-04T12:47:42;20.05;;;8.13;;
583;SDS011;27024;54.068;12.116;2023-12-04T12:50:10;24.10;;;8.50;;
583;SDS011;27024;54.068;12.116;2023-12-04T12:52:41;18.60;;;7.28;;
583;SDS011;27024;54.068;12.116;2023-12-04T12:55:10;20.25;;;8.23;;
583;SDS011;27024;54.068;12.116;2023-12-04T12:57:37;19.45;;;7.82;;
583;SDS011;27024;54.068;12.116;2023-12-04T13:00:04;19.55;;;7.78;;
583;SDS011;27024;54.068;12.116;2023-12-04T13:02:36;20.27;;;7.85;;
583;SDS011;27024;54.068;12.116;2023-12-04T13:05:06;18.05;;;7.68;;
583;SDS011;27024;54.068;12.116;2023-12-04T13:07:39;19.77;;;7.63;;
583;SDS011;27024;54.068;12.116;2023-12-04T13:10:06;18.60;;;7.20;;
583;SDS011;27024;54.068;12.116;2023-12-04T13:12:35;18.40;;;7.72;;
583;SDS011;27024;54.068;12.116;2023-12-04T13:15:02;17.90;;;7.03;;
583;SDS011;27024;54.068;12.116;2023-12-04T13:17:29;19.02;;;8.07;;
583;SDS011;27024;54.068;12.116;2023-12-04T13:19:56;19.45;;;7.75;;
583;SDS011;27024;54.068;12.116;2023-12-04T13:22:24;19.33;;;8.48;;
583;SDS011;27024;54.068;12.116;2023-12-04T13:24:52;18.13;;;7.45;;
583;SDS011;27024;54.068;12.116;2023-12-04T13:27:19;18.70;;;6.97;;
583;SDS011;27024;54.068;12.116;2023-12-04T13:29:46;19.17;;;7.57;;
583;SDS011;27024;54.068;12.116;2023-12-04T13:32:16;17.05;;;7.05;;
583;SDS011;27024;54.068;12.116;2023-12-04T13:34:43;18.13;;;7.18;;
583;SDS011;27024;54.068;12.116;2023-12-04T13:37:10;22.40;;;7.60;;
583;SDS011;27024;54.068;12.116;2023-12-04T13:39:37;17.13;;;7.30;;
583;SDS011;27024;54.068;12.116;2023-12-04T13:42:24;16.40;;;6.53;;
583;SDS011;27024;54.068;12.116;2023-12-04T13:45:10;17.15;;;7.00;;
583;SDS011;27024;54.068;12.116;2023-12-04T13:47:37;17.30;;;6.88;;
583;SDS011;27024;54.068;12.116;2023-12-04T13:50:07;17.25;;;7.03;;
583;SDS011;27024;54.068;12.116;2023-12-04T13:52:35;18.05;;;6.13;;
583;SDS011;27024;54.068;12.116;2023-12-04T13:55:03;16.35;;;6.53;;
583;SDS011;27024;54.068;12.116;2023-12-04T13:57:42;16.95;;;6.47;;
583;SDS011;27024;54.068;12.116;2023-12-04T14:00:21;16.80;;;7.20;;
583;SDS011;27024;54.068;12.116;2023-12-04T14:02:48;18.83;;;7.50;;
583;SDS011;27024;54.068;12.116;2023-12-04T14:05:15;15.45;;;6.28;;
583;SDS011;27024;54.068;12.116;2023-12-04T14:07:43;17.17;;;6.70;;
583;SDS011;27024;54.068;12.116;2023-12-04T14:10:10;17.10;;;6.80;;
583;SDS011;27024;54.068;12.116;2023-12-04T14:12:38;14.70;;;6.25;;
583;SDS011;27024;54.068;12.116;2023-12-04T14:15:05;14.45;;;5.82;;
583;SDS011;27024;54.068;12.116;2023-12-04T14:17:32;17.45;;;7.18;;
583;SDS011;27024;54.068;12.116;2023-12-04T14:19:59;13.70;;;6.03;;
583;SDS011;27024;54.068;12.116;2023-12-04T14:22:26;16.13;;;5.88;;
583;SDS011;27024;54.068;12.116;2023-12-04T14:24:53;14.07;;;5.50;;
583;SDS011;27024;54.068;12.116;2023-12-04T14:27:20;14.88;;;6.32;;
583;SDS011;27024;54.068;12.116;2023-12-04T14:29:47;14.38;;;5.93;;
583;SDS011;27024;54.068;12.116;2023-12-04T14:32:14;11.75;;;5.10;;
583;SDS011;27024;54.068;12.116;2023-12-04T14:34:40;14.88;;;5.75;;
583;SDS011;27024;54.068;12.116;2023-12-04T14:37:08;15.15;;;5.80;;
583;SDS011;27024;54.068;12.116;2023-12-04T14:39:35;14.88;;;6.75;;
583;SDS011;27024;54.068;12.116;2023-12-04T14:42:02;12.40;;;5.68;;
583;SDS011;27024;54.068;12.116;2023-12-04T14:44:29;12.40;;;5.20;;
583;SDS011;27024;54.068;12.116;2023-12-04T14:46:56;13.40;;;5.68;;
583;SDS011;27024;54.068;12.116;2023-12-04T14:49:22;14.80;;;5.72;;
583;SDS011;27024;54.068;12.116;2023-12-04T14:51:49;13.98;;;6.43;;
583;SDS011;27024;54.068;12.116;2023-12-04T14:54:16;14.88;;;5.85;;